Time,TemperatureF,DewpointF,PressureIn,WindDirection,WindDirectionDegrees,WindSpeedMPH,WindSpeedGustMPH,Humidity,HourlyPrecipIn,Conditions,Clouds,dailyrainin,SolarRadiationWatts/m^2,SoftwareType,DateUTC
2013-01-07 00:03:00,42.0,25.0,-100.00,NE,46,3.0,14.0,51,0.00,,,0.01,0.000000,,2013-01-07 05:03:00,
2013-01-07 00:33:00,41.0,26.0,-100.00,ESE,104,4.0,14.0,54,0.00,,,0.00,0.000000,,2013-01-07 05:33:00,
2013-01-07 00:43:00,41.0,26.0,-100.00,ESE,104,4.0,14.0,54,0.00,,,0.00,0.000000,,2013-01-07 05:43:00,
2013-01-07 00:53:00,41.0,26.0,-100.00,ESE,104,4.0,14.0,54,0.00,,,0.00,0.000000,,2013-01-07 05:53:00,
2013-01-07 01:02:00,41.0,26.0,-100.00,ESE,104,4.0,14.0,54,0.00,,,0.00,0.000000,,2013-01-07 06:02:00,
2013-01-07 01:32:00,40.0,25.0,-100.00,South,172,2.0,11.0,55,0.00,,,0.00,0.000000,,2013-01-07 06:32:00,
2013-01-07 01:42:00,40.0,25.0,-100.00,South,172,2.0,11.0,55,0.00,,,0.00,0.000000,,2013-01-07 06:42:00,
2013-01-07 01:52:00,40.0,25.0,-100.00,South,172,2.0,11.0,55,0.00,,,0.00,0.000000,,2013-01-07 06:52:00,
2013-01-07 02:02:00,40.0,25.0,-100.00,South,172,2.0,11.0,55,0.00,,,0.00,0.000000,,2013-01-07 07:02:00,
2013-01-07 02:33:00,39.0,24.0,-100.00,NE,46,4.0,9.0,54,0.00,,,0.00,0.000000,,2013-01-07 07:33:00,
2013-01-07 02:43:00,39.0,24.0,-100.00,NE,46,4.0,9.0,54,0.00,,,0.00,0.000000,,2013-01-07 07:43:00,
2013-01-07 02:53:00,39.0,24.0,-100.00,NE,46,4.0,9.0,54,0.00,,,0.00,0.000000,,2013-01-07 07:53:00,
2013-01-07 03:03:00,39.0,24.0,-100.00,NE,46,4.0,9.0,54,0.00,,,0.00,0.000000,,2013-01-07 08:03:00,
2013-01-07 03:33:00,38.0,24.0,-100.00,North,1,5.0,12.0,56,0.00,,,0.00,0.000000,,2013-01-07 08:33:00,
2013-01-07 03:43:00,38.0,24.0,-100.00,North,1,5.0,12.0,56,0.00,,,0.00,0.000000,,2013-01-07 08:43:00,
2013-01-07 03:53:00,38.0,24.0,-100.00,North,1,5.0,12.0,56,0.00,,,0.00,0.000000,,2013-01-07 08:53:00,
2013-01-07 04:02:00,38.0,24.0,-100.00,North,1,5.0,12.0,56,0.00,,,0.00,0.000000,,2013-01-07 09:02:00,
2013-01-07 04:32:00,35.0,22.0,-100.00,East,90,2.0,9.0,59,0.00,,,0.00,0.000000,,2013-01-07 09:32:00,
2013-01-07 04:42:00,35.0,22.0,-100.00,East,90,2.0,9.0,59,0.00,,,0.00,0.000000,,2013-01-07 09:42:00,
2013-01-07 04:53:00,35.0,22.0,-100.00,East,90,2.0,9.0,59,0.00,,,0.00,0.000000,,2013-01-07 09:53:00,
2013-01-07 05:02:00,35.0,22.0,-100.00,East,90,2.0,9.0,59,0.00,,,0.00,0.000000,,2013-01-07 10:02:00,
2013-01-07 05:33:00,33.0,21.0,-100.00,NW,316,3.0,6.0,60,0.00,,,0.00,0.000000,,2013-01-07 10:33:00,
2013-01-07 05:43:00,33.0,21.0,-100.00,NW,316,3.0,6.0,60,0.00,,,0.00,0.000000,,2013-01-07 10:43:00,
2013-01-07 05:52:00,33.0,21.0,-100.00,NW,316,3.0,6.0,60,0.00,,,0.00,0.000000,,2013-01-07 10:52:00,
2013-01-07 06:02:00,33.0,21.0,-100.00,NW,316,3.0,6.0,60,0.00,,,0.00,0.000000,,2013-01-07 11:02:00,
2013-01-07 06:33:00,32.0,20.0,-100.00,NE,41,2.0,8.0,60,0.00,,,0.00,0.000000,,2013-01-07 11:33:00,
2013-01-07 06:43:00,32.0,20.0,-100.00,NE,41,2.0,8.0,60,0.00,,,0.00,0.000000,,2013-01-07 11:43:00,
2013-01-07 06:53:00,32.0,20.0,-100.00,NE,41,2.0,8.0,60,0.00,,,0.00,0.000000,,2013-01-07 11:53:00,
2013-01-07 07:03:00,32.0,20.0,-100.00,NE,41,2.0,8.0,60,0.00,,,0.00,0.000000,,2013-01-07 12:03:00,
2013-01-07 07:33:00,29.0,18.0,-100.00,NNE,17,2.0,5.0,63,0.00,,,0.00,0.000000,,2013-01-07 12:33:00,
2013-01-07 07:43:00,29.0,18.0,-100.00,NNE,17,2.0,5.0,63,0.00,,,0.00,0.000000,,2013-01-07 12:43:00,
2013-01-07 07:53:00,29.0,18.0,-100.00,NNE,17,2.0,5.0,63,0.00,,,0.00,0.000000,,2013-01-07 12:53:00,
2013-01-07 08:03:00,29.0,18.0,-100.00,NNE,17,2.0,5.0,63,0.00,,,0.00,0.000000,,2013-01-07 13:03:00,
2013-01-07 08:33:00,29.0,18.0,-100.00,North,357,3.0,7.0,62,0.00,,,0.00,6.000000,,2013-01-07 13:33:00,
2013-01-07 08:43:00,29.0,18.0,-100.00,North,357,3.0,7.0,62,0.00,,,0.00,6.000000,,2013-01-07 13:43:00,
2013-01-07 08:53:00,29.0,18.0,-100.00,North,357,3.0,7.0,62,0.00,,,0.00,6.000000,,2013-01-07 13:53:00,
2013-01-07 09:03:00,29.0,18.0,-100.00,North,357,3.0,7.0,62,0.00,,,0.00,6.000000,,2013-01-07 14:03:00,
2013-01-07 09:33:00,34.0,18.0,-100.00,South,173,3.0,10.0,52,0.00,,,0.00,90.000000,,2013-01-07 14:33:00,
2013-01-07 09:43:00,34.0,18.0,-100.00,South,173,3.0,10.0,52,0.00,,,0.00,90.000000,,2013-01-07 14:43:00,
2013-01-07 09:53:00,34.0,18.0,-100.00,South,173,3.0,10.0,52,0.00,,,0.00,90.000000,,2013-01-07 14:53:00,
2013-01-07 10:03:00,34.0,18.0,-100.00,South,173,3.0,10.0,52,0.00,,,0.00,90.000000,,2013-01-07 15:03:00,
2013-01-07 10:33:00,39.0,20.0,-100.00,SW,232,3.0,7.0,46,0.00,,,0.00,263.000000,,2013-01-07 15:33:00,
2013-01-07 10:43:00,39.0,20.0,-100.00,SW,232,3.0,7.0,46,0.00,,,0.00,263.000000,,2013-01-07 15:43:00,
2013-01-07 10:53:00,39.0,20.0,-100.00,SW,232,3.0,7.0,46,0.00,,,0.00,263.000000,,2013-01-07 15:53:00,
2013-01-07 11:03:00,39.0,20.0,-100.00,SW,232,3.0,7.0,46,0.00,,,0.00,263.000000,,2013-01-07 16:03:00,
2013-01-07 11:33:00,39.0,18.0,-100.00,ESE,116,5.0,9.0,43,0.00,,,0.00,435.000000,,2013-01-07 16:33:00,
2013-01-07 11:43:00,39.0,18.0,-100.00,ESE,116,5.0,9.0,43,0.00,,,0.00,435.000000,,2013-01-07 16:43:00,
2013-01-07 11:53:00,39.0,18.0,-100.00,ESE,116,5.0,9.0,43,0.00,,,0.00,435.000000,,2013-01-07 16:53:00,
2013-01-07 12:03:00,39.0,18.0,-100.00,ESE,116,5.0,9.0,43,0.00,,,0.00,435.000000,,2013-01-07 17:03:00,
2013-01-07 12:33:00,41.0,19.0,-100.00,SE,133,4.0,9.0,41,0.00,,,0.00,343.000000,,2013-01-07 17:33:00,
2013-01-07 12:43:00,41.0,19.0,-100.00,SE,133,4.0,9.0,41,0.00,,,0.00,343.000000,,2013-01-07 17:43:00,
2013-01-07 12:53:00,41.0,19.0,-100.00,SE,133,4.0,9.0,41,0.00,,,0.00,343.000000,,2013-01-07 17:53:00,
2013-01-07 13:03:00,41.0,19.0,-100.00,SE,133,4.0,9.0,41,0.00,,,0.00,343.000000,,2013-01-07 18:03:00,
2013-01-07 13:33:00,41.0,19.0,-100.00,SE,143,4.0,10.0,41,0.00,,,0.00,334.000000,,2013-01-07 18:33:00,
2013-01-07 13:43:00,41.0,19.0,-100.00,SE,143,4.0,10.0,41,0.00,,,0.00,334.000000,,2013-01-07 18:43:00,
2013-01-07 13:53:00,41.0,19.0,-100.00,SE,143,4.0,10.0,41,0.00,,,0.00,334.000000,,2013-01-07 18:53:00,
2013-01-07 14:03:00,41.0,19.0,-100.00,SE,143,4.0,10.0,41,0.00,,,0.00,334.000000,,2013-01-07 19:03:00,
2013-01-07 14:33:00,44.0,19.0,-100.00,SE,142,3.0,7.0,36,0.00,,,0.00,262.000000,,2013-01-07 19:33:00,
2013-01-07 14:43:00,44.0,19.0,-100.00,SE,142,3.0,7.0,36,0.00,,,0.00,262.000000,,2013-01-07 19:43:00,
2013-01-07 14:53:00,44.0,19.0,-100.00,SE,142,3.0,7.0,36,0.00,,,0.00,262.000000,,2013-01-07 19:53:00,
2013-01-07 15:03:00,44.0,19.0,-100.00,SE,142,3.0,7.0,36,0.00,,,0.00,262.000000,,2013-01-07 20:03:00,
2013-01-07 15:33:00,46.0,20.0,-100.00,SW,217,3.0,6.0,35,0.00,,,0.00,347.000000,,2013-01-07 20:33:00,
2013-01-07 15:43:00,46.0,20.0,-100.00,SW,217,3.0,6.0,35,0.00,,,0.00,347.000000,,2013-01-07 20:43:00,
2013-01-07 15:53:00,46.0,20.0,-100.00,SW,217,3.0,6.0,35,0.00,,,0.00,347.000000,,2013-01-07 20:53:00,
2013-01-07 16:03:00,46.0,20.0,-100.00,SW,217,3.0,6.0,35,0.00,,,0.00,347.000000,,2013-01-07 21:03:00,
2013-01-07 16:33:00,46.0,21.0,-100.00,NE,56,2.0,5.0,36,0.00,,,0.00,194.000000,,2013-01-07 21:33:00,
2013-01-07 16:43:00,46.0,21.0,-100.00,NE,56,2.0,5.0,36,0.00,,,0.00,194.000000,,2013-01-07 21:43:00,
2013-01-07 16:53:00,46.0,21.0,-100.00,NE,56,2.0,5.0,36,0.00,,,0.00,194.000000,,2013-01-07 21:53:00,
2013-01-07 17:03:00,46.0,21.0,-100.00,NE,56,2.0,5.0,36,0.00,,,0.00,194.000000,,2013-01-07 22:03:00,
2013-01-07 17:33:00,40.0,21.0,-100.00,NNE,17,2.0,4.0,46,0.00,,,0.00,20.000000,,2013-01-07 22:33:00,
2013-01-07 17:43:00,40.0,21.0,-100.00,NNE,17,2.0,4.0,46,0.00,,,0.00,20.000000,,2013-01-07 22:43:00,
2013-01-07 17:53:00,40.0,21.0,-100.00,NNE,17,2.0,4.0,46,0.00,,,0.00,20.000000,,2013-01-07 22:53:00,
2013-01-07 18:03:00,40.0,21.0,-100.00,NNE,17,2.0,4.0,46,0.00,,,0.00,20.000000,,2013-01-07 23:03:00,
2013-01-07 18:33:00,36.0,21.0,-100.00,NW,316,1.0,3.0,53,0.00,,,0.00,2.000000,,2013-01-07 23:33:00,
2013-01-07 18:43:00,36.0,21.0,-100.00,NW,316,1.0,3.0,53,0.00,,,0.00,2.000000,,2013-01-07 23:43:00,
2013-01-07 18:53:00,36.0,21.0,-100.00,NW,316,1.0,3.0,53,0.00,,,0.00,2.000000,,2013-01-07 23:53:00,
2013-01-07 19:03:00,36.0,21.0,-100.00,NW,316,1.0,3.0,53,0.00,,,0.00,2.000000,,2013-01-08 00:03:00,
2013-01-07 19:33:00,31.0,21.0,-100.00,West,263,1.0,2.0,65,0.00,,,0.00,0.000000,,2013-01-08 00:33:00,
2013-01-07 19:43:00,31.0,21.0,-100.00,West,263,1.0,2.0,65,0.00,,,0.00,0.000000,,2013-01-08 00:43:00,
2013-01-07 19:53:00,31.0,21.0,-100.00,West,263,1.0,2.0,65,0.00,,,0.00,0.000000,,2013-01-08 00:53:00,
2013-01-07 20:03:00,31.0,21.0,-100.00,West,263,1.0,2.0,65,0.00,,,0.00,0.000000,,2013-01-08 01:03:00,
2013-01-07 20:33:00,29.0,21.0,-100.00,West,263,0.0,2.0,73,0.00,,,0.00,0.000000,,2013-01-08 01:33:00,
2013-01-07 20:42:00,29.0,21.0,-100.00,West,263,0.0,2.0,73,0.00,,,0.00,0.000000,,2013-01-08 01:42:00,
2013-01-07 20:53:00,29.0,21.0,-100.00,West,263,0.0,2.0,73,0.00,,,0.00,0.000000,,2013-01-08 01:53:00,
2013-01-07 21:02:00,29.0,21.0,-100.00,West,263,0.0,2.0,73,0.00,,,0.00,0.000000,,2013-01-08 02:02:00,
2013-01-07 21:33:00,26.0,20.0,-100.00,NW,304,1.0,2.0,79,0.00,,,0.00,0.000000,,2013-01-08 02:33:00,
2013-01-07 21:43:00,26.0,20.0,-100.00,NW,304,1.0,2.0,79,0.00,,,0.00,0.000000,,2013-01-08 02:43:00,
2013-01-07 21:53:00,26.0,20.0,-100.00,NW,304,1.0,2.0,79,0.00,,,0.00,0.000000,,2013-01-08 02:53:00,
2013-01-07 22:03:00,26.0,20.0,-100.00,NW,304,1.0,2.0,79,0.00,,,0.00,0.000000,,2013-01-08 03:03:00,
2013-01-07 22:33:00,25.0,20.0,-100.00,South,186,1.0,3.0,82,0.00,,,0.00,0.000000,,2013-01-08 03:33:00,
2013-01-07 22:43:00,25.0,20.0,-100.00,South,186,1.0,3.0,82,0.00,,,0.00,0.000000,,2013-01-08 03:43:00,
2013-01-07 22:53:00,25.0,20.0,-100.00,South,186,1.0,3.0,82,0.00,,,0.00,0.000000,,2013-01-08 03:53:00,
2013-01-07 23:02:00,25.0,20.0,-100.00,South,186,1.0,3.0,82,0.00,,,0.00,0.000000,,2013-01-08 04:02:00,
2013-01-07 23:32:00,24.0,19.0,-100.00,WSW,249,0.0,2.0,82,0.00,,,0.00,0.000000,,2013-01-08 04:32:00,
2013-01-07 23:43:00,24.0,19.0,-100.00,WSW,249,0.0,2.0,82,0.00,,,0.00,0.000000,,2013-01-08 04:43:00,
2013-01-07 23:52:00,24.0,19.0,-100.00,WSW,249,0.0,2.0,82,0.00,,,0.00,0.000000,,2013-01-08 04:52:00,